Time;durP1;ratioP1;P1;durP2;ratioP2;P2;SDS_P1;SDS_P2;PMS_P1;PMS_P2;Temp;Humidity;BMP_temperature;BMP_pressure;BME280_temperature;BME280_humidity;BME280_pressure;Samples;Min_cycle;Max_cycle;Signal;HPM_P1;HPM_P2
2021/10/06 00:02:10;;;;;;;6.33;5.73;;;;;;;17.64;66.23;99135.09;5014567;28;20314;-89
2021/10/06 00:04:37;;;;;;;6.93;6.20;;;;;;;17.50;66.50;99145.69;5015192;28;20281;-88
2021/10/06 00:07:04;;;;;;;6.73;6.13;;;;;;;17.44;66.73;99154.13;4983087;28;20314;-85
2021/10/06 00:09:30;;;;;;;6.80;6.20;;;;;;;17.42;66.59;99150.88;4998775;28;20238;-88
2021/10/06 00:11:57;;;;;;;6.57;5.97;;;;;;;17.28;66.32;99141.69;5016143;28;20241;-83
2021/10/06 00:14:24;;;;;;;7.03;6.43;;;;;;;17.28;65.92;99147.94;4998233;28;20635;-84
2021/10/06 00:16:52;;;;;;;6.90;6.30;;;;;;;17.06;66.44;99150.16;5014801;28;20257;-84
2021/10/06 00:19:20;;;;;;;7.20;6.53;;;;;;;16.99;66.93;99161.25;4998809;28;20235;-82
2021/10/06 00:21:47;;;;;;;6.73;6.13;;;;;;;16.89;66.95;99160.47;4998877;28;20241;-89
2021/10/06 00:24:13;;;;;;;6.50;5.90;;;;;;;16.75;67.70;99160.16;4998210;28;20258;-83
2021/10/06 00:26:40;;;;;;;6.77;5.93;;;;;;;16.72;67.63;99161.53;5014789;28;20223;-88
2021/10/06 00:29:08;;;;;;;6.93;6.33;;;;;;;16.69;67.51;99155.88;4998500;28;20354;-86
2021/10/06 00:31:35;;;;;;;7.00;6.33;;;;;;;16.61;68.12;99159.91;4998558;28;20256;-90
2021/10/06 00:34:02;;;;;;;6.60;6.07;;;;;;;16.55;68.32;99165.56;5016255;28;20626;-83
2021/10/06 00:36:29;;;;;;;6.70;6.10;;;;;;;16.40;68.42;99146.59;4988851;28;20223;-82
2021/10/06 00:38:56;;;;;;;6.83;5.83;;;;;;;16.36;68.69;99154.44;5004965;28;20222;-87
2021/10/06 00:41:23;;;;;;;7.10;6.50;;;;;;;16.32;69.06;99163.38;4988758;28;20234;-89
2021/10/06 00:43:50;;;;;;;6.03;5.43;;;;;;;16.28;69.25;99163.09;5005034;28;20222;-90
2021/10/06 00:46:16;;;;;;;6.17;5.63;;;;;;;16.22;69.62;99183.91;4988277;28;20661;-87
2021/10/06 00:48:43;;;;;;;5.80;5.30;;;;;;;16.17;69.80;99178.47;5021072;28;20725;-86
2021/10/06 00:51:13;;;;;;;6.17;5.67;;;;;;;16.21;69.71;99176.84;4988424;28;20234;-86
2021/10/06 00:53:39;;;;;;;6.40;5.90;;;;;;;16.19;69.98;99180.91;5021250;28;20249;-89
2021/10/06 00:56:06;;;;;;;7.00;6.27;;;;;;;16.21;69.70;99192.25;5004353;28;20248;-87
2021/10/06 00:58:33;;;;;;;6.60;6.00;;;;;;;16.05;70.03;99177.09;4988782;28;20222;-86
2021/10/06 01:01:00;;;;;;;7.07;6.40;;;;;;;16.04;70.14;99179.00;5004842;28;20237;-83
2021/10/06 01:03:27;;;;;;;6.43;5.87;;;;;;;16.02;70.44;99191.94;5022030;28;20231;-90
2021/10/06 01:05:54;;;;;;;7.77;6.23;;;;;;;15.98;70.61;99201.66;4988373;28;20583;-85
2021/10/06 01:08:22;;;;;;;6.53;5.67;;;;;;;15.97;70.65;99181.13;5004254;28;20244;-88
2021/10/06 01:10:49;;;;;;;6.20;5.63;;;;;;;15.86;70.97;99177.56;5020885;28;20246;-88
2021/10/06 01:13:16;;;;;;;6.33;5.73;;;;;;;15.79;71.19;99174.28;4988455;28;20289;-88
2021/10/06 01:15:46;;;;;;;6.20;5.70;;;;;;;15.83;71.53;99191.59;5004722;28;20222;-88
2021/10/06 01:18:13;;;;;;;6.43;5.83;;;;;;;15.74;71.55;99185.06;5020592;28;20262;-85
2021/10/06 01:20:40;;;;;;;6.30;5.70;;;;;;;15.69;71.69;99186.94;5004539;28;20225;-86
2021/10/06 01:23:06;;;;;;;6.77;5.97;;;;;;;15.66;72.02;99188.28;5020846;28;20235;-87
2021/10/06 01:25:33;;;;;;;6.77;6.13;;;;;;;15.70;71.97;99188.56;4988489;28;20234;-82
2021/10/06 01:28:01;;;;;;;6.17;5.57;;;;;;;15.67;71.98;99189.09;4988085;28;20638;-84
2021/10/06 01:30:28;;;;;;;6.13;5.63;;;;;;;15.64;71.46;99189.63;5007724;28;20225;-87
2021/10/06 01:32:55;;;;;;;6.80;6.20;;;;;;;15.60;71.34;99197.44;5041112;28;20636;-86
2021/10/06 01:35:22;;;;;;;7.20;6.50;;;;;;;15.54;71.78;99186.88;5024106;28;20633;-82
2021/10/06 01:37:49;;;;;;;6.73;6.00;;;;;;;15.55;72.15;99197.41;5024248;28;20637;-87
2021/10/06 01:40:18;;;;;;;6.20;5.60;;;;;;;15.57;72.26;99189.06;5023373;28;20226;-84
2021/10/06 01:42:45;;;;;;;7.00;5.97;;;;;;;15.56;72.12;99196.34;5040460;28;20222;-87
2021/10/06 01:45:17;;;;;;;5.77;5.27;;;;;;;15.62;72.19;99202.59;5039613;28;20645;-88
2021/10/06 01:47:44;;;;;;;6.03;5.40;;;;;;;15.59;72.55;99200.38;5037250;28;20233;-84
2021/10/06 01:50:11;;;;;;;6.33;5.67;;;;;;;15.56;72.56;99204.44;5003629;28;20237;-86
2021/10/06 01:52:38;;;;;;;5.47;5.07;;;;;;;15.57;72.68;99207.94;5036962;28;20312;-85
2021/10/06 01:55:05;;;;;;;5.53;4.93;;;;;;;15.51;72.94;99222.50;5020618;28;20241;-82
2021/10/06 01:57:32;;;;;;;5.60;5.10;;;;;;;15.51;73.23;99219.78;5020739;28;20261;-83
2021/10/06 01:59:59;;;;;;;6.33;5.20;;;;;;;15.47;73.07;99219.47;5020542;28;20657;-82
2021/10/06 02:02:25;;;;;;;6.13;5.53;;;;;;;15.48;73.15;99226.50;5036586;28;20309;-82
2021/10/06 02:04:52;;;;;;;6.13;5.53;;;;;;;15.57;72.81;99229.56;5004370;28;20546;-88
2021/10/06 02:07:19;;;;;;;5.80;5.30;;;;;;;15.58;72.61;99217.69;5020341;28;20252;-83
2021/10/06 02:09:46;;;;;;;6.00;5.40;;;;;;;15.56;72.86;99217.13;5036611;28;20305;-85
2021/10/06 02:12:13;;;;;;;5.50;5.00;;;;;;;15.64;72.96;99225.53;5036271;28;20576;-82
2021/10/06 02:14:39;;;;;;;6.03;5.53;;;;;;;15.57;73.30;99211.47;5037548;28;20225;-82
2021/10/06 02:17:06;;;;;;;5.67;5.17;;;;;;;15.62;72.97;99222.31;5003959;28;20252;-83
2021/10/06 02:19:33;;;;;;;6.50;5.90;;;;;;;15.60;72.73;99224.44;5000384;28;20239;-82
2021/10/06 02:22:00;;;;;;;6.60;5.70;;;;;;;15.55;72.75;99218.19;5020261;28;20237;-83
2021/10/06 02:24:26;;;;;;;6.20;5.70;;;;;;;15.62;72.19;99218.78;5019826;28;20236;-85
2021/10/06 02:26:53;;;;;;;6.13;5.63;;;;;;;15.63;72.29;99213.09;5036579;28;20232;-89
2021/10/06 02:29:20;;;;;;;5.93;5.43;;;;;;;15.71;72.48;99225.31;5000582;28;20230;-84
2021/10/06 02:31:47;;;;;;;6.20;5.60;;;;;;;15.65;72.64;99213.66;5030966;28;20229;-83
2021/10/06 02:34:14;;;;;;;5.90;5.33;;;;;;;15.71;73.23;99215.31;5035982;28;20321;-85
2021/10/06 02:36:40;;;;;;;5.33;4.93;;;;;;;15.69;72.75;99205.84;5036011;28;20240;-87
2021/10/06 02:39:07;;;;;;;6.13;5.63;;;;;;;15.73;72.58;99223.16;5019883;28;20244;-83
2021/10/06 02:41:34;;;;;;;5.30;4.90;;;;;;;15.72;72.55;99216.13;5019637;28;20534;-91
2021/10/06 02:44:01;;;;;;;6.80;6.20;;;;;;;15.82;72.09;99235.06;5035743;28;20225;-84
2021/10/06 02:46:28;;;;;;;6.40;5.70;;;;;;;15.77;71.90;99227.75;5037151;28;20225;-85
2021/10/06 02:48:54;;;;;;;5.83;5.43;;;;;;;15.81;71.68;99238.88;5019545;28;20234;-83
2021/10/06 02:51:21;;;;;;;7.47;5.40;;;;;;;15.80;71.78;99234.53;5019493;28;20309;-85
2021/10/06 02:53:48;;;;;;;5.87;5.37;;;;;;;15.83;71.85;99232.13;5019511;28;20230;-83
2021/10/06 02:56:15;;;;;;;5.90;5.40;;;;;;;15.88;71.62;99244.84;5019270;28;20244;-86
2021/10/06 02:58:42;;;;;;;6.07;5.47;;;;;;;15.91;71.27;99247.00;5036441;28;20228;-86
2021/10/06 03:01:09;;;;;;;5.33;4.93;;;;;;;15.86;71.76;99233.50;5003183;28;20236;-87
2021/10/06 03:03:36;;;;;;;5.20;4.80;;;;;;;15.94;71.88;99251.91;5036758;28;20234;-86
2021/10/06 03:06:03;;;;;;;6.27;5.67;;;;;;;15.98;71.73;99247.59;5019534;28;20645;-88
2021/10/06 03:08:30;;;;;;;6.20;5.60;;;;;;;15.92;71.21;99232.41;5019322;28;20232;-85
2021/10/06 03:10:57;;;;;;;6.37;5.73;;;;;;;16.04;71.25;99253.81;5035680;28;20283;-88
2021/10/06 03:13:24;;;;;;;5.73;5.23;;;;;;;16.01;71.38;99248.94;5019221;28;20510;-84
2021/10/06 03:15:50;;;;;;;6.07;5.57;;;;;;;15.98;71.40;99244.06;4999345;28;20283;-90
2021/10/06 03:18:17;;;;;;;6.80;5.90;;;;;;;15.97;70.85;99245.13;5018739;28;20241;-84
2021/10/06 03:20:44;;;;;;;5.73;5.23;;;;;;;15.97;70.97;99239.72;5035454;28;20226;-89
2021/10/06 03:23:11;;;;;;;5.50;5.10;;;;;;;16.02;71.12;99255.97;5019100;28;20222;-87
2021/10/06 03:25:37;;;;;;;6.30;5.70;;;;;;;16.01;71.19;99262.44;4999230;28;20237;-82
2021/10/06 03:28:04;;;;;;;6.37;5.63;;;;;;;16.01;70.82;99265.16;5032247;28;20272;-89
2021/10/06 03:30:32;;;;;;;6.30;5.70;;;;;;;15.99;71.15;99272.72;5035369;28;20222;-83
2021/10/06 03:32:59;;;;;;;7.07;6.47;;;;;;;16.02;71.00;99278.41;5019021;28;20233;-88
2021/10/06 03:35:26;;;;;;;6.37;5.87;;;;;;;16.02;71.07;99285.69;5018711;28;20528;-86
2021/10/06 03:37:52;;;;;;;6.17;5.63;;;;;;;15.96;71.16;99284.84;5035410;28;20570;-89
2021/10/06 03:40:19;;;;;;;6.27;5.77;;;;;;;15.95;71.41;99279.72;5034795;28;20234;-87
2021/10/06 03:42:46;;;;;;;6.33;5.47;;;;;;;15.97;71.29;99291.88;5035182;28;20233;-89
2021/10/06 03:45:14;;;;;;;6.20;5.67;;;;;;;15.92;71.71;99294.56;5002233;28;20249;-84
2021/10/06 03:47:41;;;;;;;6.20;5.60;;;;;;;15.96;71.19;99301.06;4999398;28;20318;-89
2021/10/06 03:50:10;;;;;;;6.40;5.80;;;;;;;16.02;70.83;99305.41;5000786;28;20238;-84
2021/10/06 03:52:37;;;;;;;6.27;5.77;;;;;;;16.04;70.71;99307.88;4998935;28;20280;-87
2021/10/06 03:55:06;;;;;;;8.27;6.37;;;;;;;16.12;70.41;99307.38;5015197;28;20233;-88
2021/10/06 03:57:32;;;;;;;6.53;5.83;;;;;;;16.04;70.76;99297.06;5015060;28;20234;-82
2021/10/06 03:59:59;;;;;;;6.33;5.70;;;;;;;16.03;70.96;99308.94;5015002;28;20326;-89
2021/10/06 04:02:30;;;;;;;6.17;5.57;;;;;;;15.98;71.38;99301.63;5003188;28;20599;-88
2021/10/06 04:04:57;;;;;;;6.80;6.10;;;;;;;15.99;70.89;99308.66;5018692;28;20226;-83
2021/10/06 04:07:24;;;;;;;7.13;6.33;;;;;;;15.97;71.37;99302.69;5018331;28;20592;-90
2021/10/06 04:09:50;;;;;;;6.80;6.10;;;;;;;15.93;71.89;99298.88;5035010;28;20226;-83
2021/10/06 04:12:17;;;;;;;6.47;5.87;;;;;;;15.85;71.90;99297.50;5034168;28;20234;-85
2021/10/06 04:14:44;;;;;;;6.17;5.57;;;;;;;15.89;71.55;99303.19;5034593;28;20576;-85
2021/10/06 04:17:11;;;;;;;7.13;6.30;;;;;;;15.94;71.49;99307.81;5034494;28;20239;-83
2021/10/06 04:19:37;;;;;;;10.00;6.90;;;;;;;15.88;71.61;99301.56;5021497;28;20237;-86
2021/10/06 04:22:04;;;;;;;7.60;6.80;;;;;;;15.81;71.94;99301.81;4982085;28;20231;-89
2021/10/06 04:24:31;;;;;;;8.60;6.93;;;;;;;15.84;71.58;99311.28;5014686;28;20230;-82
2021/10/06 04:26:58;;;;;;;8.07;6.50;;;;;;;15.83;71.63;99317.75;4998573;28;20589;-85
2021/10/06 04:29:24;;;;;;;8.03;7.30;;;;;;;15.87;71.85;99329.66;5015066;28;20225;-89
2021/10/06 04:31:51;;;;;;;7.13;6.40;;;;;;;15.87;71.97;99324.25;4990116;28;20219;-85
2021/10/06 04:34:18;;;;;;;7.67;6.73;;;;;;;15.86;71.92;99328.03;4996378;28;20242;-85
2021/10/06 04:36:45;;;;;;;7.13;6.47;;;;;;;15.94;71.65;99340.22;4997443;28;20229;-90
2021/10/06 04:39:12;;;;;;;7.27;6.57;;;;;;;15.93;71.72;99344.00;5014155;28;20657;-86
2021/10/06 04:41:39;;;;;;;7.77;7.00;;;;;;;15.85;71.99;99329.09;4997864;28;20221;-85
2021/10/06 04:44:06;;;;;;;7.90;7.10;;;;;;;15.91;71.82;99338.06;4996926;28;20249;-88
2021/10/06 04:46:32;;;;;;;7.63;6.90;;;;;;;15.85;71.61;99323.72;5014208;28;20230;-82
2021/10/06 04:49:01;;;;;;;7.80;6.57;;;;;;;15.90;71.70;99339.94;4998171;28;20705;-85
2021/10/06 04:51:29;;;;;;;6.80;6.20;;;;;;;15.89;71.70;99332.91;4998267;28;20239;-82
2021/10/06 04:53:55;;;;;;;7.93;6.10;;;;;;;15.94;71.95;99340.22;4998023;28;20226;-82
2021/10/06 04:56:22;;;;;;;7.53;6.33;;;;;;;15.94;72.15;99345.63;4980723;28;20239;-83
2021/10/06 04:58:49;;;;;;;7.03;6.23;;;;;;;15.84;72.26;99346.38;4990119;28;20231;-89
2021/10/06 05:01:16;;;;;;;6.80;6.17;;;;;;;15.89;72.40;99353.72;5005630;28;20222;-82
2021/10/06 05:03:43;;;;;;;7.07;5.93;;;;;;;15.85;72.74;99354.25;4987917;28;20223;-89
2021/10/06 05:06:12;;;;;;;6.53;5.93;;;;;;;15.77;72.40;99346.59;5002248;28;20580;-88
2021/10/06 05:08:39;;;;;;;6.40;5.83;;;;;;;15.81;72.71;99344.22;4988474;28;20314;-84
2021/10/06 05:11:06;;;;;;;6.47;5.90;;;;;;;15.72;72.39;99340.38;5004228;28;20239;-82
2021/10/06 05:13:32;;;;;;;6.70;6.10;;;;;;;15.77;72.74;99349.31;4971625;28;20242;-86
2021/10/06 05:15:59;;;;;;;5.93;5.43;;;;;;;15.73;72.56;99350.91;4991775;28;20226;-85
2021/10/06 05:18:26;;;;;;;6.00;5.40;;;;;;;15.77;72.82;99370.13;5013476;28;20231;-85
2021/10/06 05:20:53;;;;;;;6.80;5.63;;;;;;;15.75;73.00;99364.16;4998773;28;20253;-83
2021/10/06 05:23:20;;;;;;;5.90;5.00;;;;;;;15.79;73.01;99365.25;4985434;28;20313;-86
2021/10/06 05:25:47;;;;;;;6.10;5.60;;;;;;;15.78;72.95;99356.34;4986750;28;20232;-84
2021/10/06 05:28:13;;;;;;;8.07;5.60;;;;;;;15.84;71.90;99355.31;4981815;28;20224;-85
2021/10/06 05:30:40;;;;;;;6.20;5.47;;;;;;;15.96;70.88;99362.41;4999319;28;20231;-81
2021/10/06 05:33:07;;;;;;;6.63;5.87;;;;;;;16.07;70.78;99356.78;4997848;28;20253;-89
2021/10/06 05:35:34;;;;;;;7.30;6.13;;;;;;;16.14;70.58;99359.28;4982053;28;20258;-80
2021/10/06 05:38:01;;;;;;;6.83;6.23;;;;;;;16.04;71.40;99365.44;5006437;28;20223;-86
2021/10/06 05:40:28;;;;;;;7.17;5.83;;;;;;;15.96;71.56;99365.13;5014264;28;20223;-84
2021/10/06 05:42:55;;;;;;;6.77;6.00;;;;;;;16.01;71.72;99382.16;4990449;28;20317;-89
2021/10/06 05:45:22;;;;;;;6.73;6.10;;;;;;;15.93;72.26;99379.94;4997598;28;20238;-85
2021/10/06 05:47:49;;;;;;;6.10;5.57;;;;;;;16.07;71.89;99388.41;5013540;28;20229;-82
2021/10/06 05:50:16;;;;;;;6.33;5.80;;;;;;;15.98;72.04;99368.34;5016740;28;20239;-88
2021/10/06 05:52:43;;;;;;;6.10;5.60;;;;;;;16.10;71.60;99380.59;5017686;28;20233;-84
2021/10/06 05:55:10;;;;;;;5.83;5.23;;;;;;;15.97;71.45;99374.81;5010887;28;20219;-81
2021/10/06 05:57:37;;;;;;;5.00;4.60;;;;;;;15.96;71.10;99373.22;4968192;28;20223;-87
2021/10/06 06:00:04;;;;;;;5.43;3.63;;;;;;;15.99;70.45;99376.22;5010336;28;20259;-81
2021/10/06 06:02:42;;;;;;;5.00;4.30;;;;;;;16.08;70.16;99373.81;5022670;28;20562;-81
2021/10/06 06:05:09;;;;;;;3.20;2.90;;;;;;;16.23;68.53;99387.44;5017003;28;20236;-84
2021/10/06 06:07:36;;;;;;;2.83;2.50;;;;;;;16.23;68.34;99385.53;5016924;28;20653;-85
2021/10/06 06:10:03;;;;;;;2.40;2.20;;;;;;;16.33;67.63;99390.16;5000409;28;20324;-87
2021/10/06 06:12:30;;;;;;;3.00;2.00;;;;;;;16.55;65.87;99407.06;4980938;28;20235;-91
2021/10/06 06:14:57;;;;;;;2.73;2.00;;;;;;;16.60;65.62;99411.72;5002954;28;20230;-88
2021/10/06 06:17:23;;;;;;;4.87;2.30;;;;;;;16.60;66.23;99392.78;5029161;28;20230;-90
2021/10/06 06:19:50;;;;;;;4.23;1.83;;;;;;;16.78;66.03;99399.59;5036485;28;20230;-91
2021/10/06 06:22:17;;;;;;;3.93;2.10;;;;;;;16.81;65.36;99408.00;5037049;28;20601;-86
2021/10/06 06:24:44;;;;;;;2.00;1.90;;;;;;;16.79;65.15;99393.13;5036573;28;20228;-90
2021/10/06 06:27:11;;;;;;;2.37;1.83;;;;;;;17.03;65.13;99391.56;5036457;28;20233;-88
2021/10/06 06:29:38;;;;;;;2.33;1.80;;;;;;;17.33;63.88;99409.75;5020125;28;20631;-84
2021/10/06 06:32:04;;;;;;;3.70;1.70;;;;;;;17.37;63.61;99405.41;5015274;28;20227;-88
2021/10/06 06:34:31;;;;;;;4.33;1.80;;;;;;;17.31;64.24;99411.91;5033098;28;20301;-89
2021/10/06 06:36:58;;;;;;;2.17;1.80;;;;;;;17.13;64.34;99400.50;5016320;28;20227;-84
2021/10/06 06:39:25;;;;;;;5.07;2.10;;;;;;;17.17;64.33;99417.00;5000207;28;20317;-84
2021/10/06 06:41:52;;;;;;;2.00;1.90;;;;;;;17.08;64.31;99424.03;5032631;28;20292;-89
2021/10/06 06:44:19;;;;;;;5.70;1.97;;;;;;;17.03;64.68;99422.13;5017627;28;20637;-81
2021/10/06 06:46:45;;;;;;;1.97;1.80;;;;;;;16.97;64.58;99419.69;5034943;28;20225;-88
2021/10/06 06:49:12;;;;;;;1.80;1.70;;;;;;;16.83;65.72;99429.38;5035474;28;20229;-85
2021/10/06 06:51:39;;;;;;;3.27;2.00;;;;;;;16.60;65.97;99436.88;5035984;28;20234;-90
2021/10/06 06:54:05;;;;;;;4.17;3.30;;;;;;;16.52;66.97;99436.50;5035609;28;20243;-81
2021/10/06 06:56:38;;;;;;;13.97;10.33;;;;;;;16.35;69.70;99438.56;5019314;28;20687;-90
2021/10/06 06:59:08;;;;;;;19.47;14.47;;;;;;;16.40;69.34;99455.66;5036834;28;20238;-91
2021/10/06 07:01:36;;;;;;;12.73;11.53;;;;;;;16.35;70.25;99463.72;5035720;28;20290;-82
2021/10/06 07:04:03;;;;;;;17.07;11.50;;;;;;;16.29;69.86;99459.34;5018727;28;20572;-82
2021/10/06 07:06:34;;;;;;;16.87;12.73;;;;;;;16.28;69.51;99468.56;5008216;28;20642;-85
2021/10/06 07:09:04;;;;;;;19.60;13.90;;;;;;;16.13;70.08;99447.66;5000274;28;20225;-82
2021/10/06 07:11:31;;;;;;;15.57;12.13;;;;;;;16.05;70.34;99448.09;4999373;28;20249;-84
2021/10/06 07:13:58;;;;;;;17.80;11.43;;;;;;;16.12;70.04;99458.72;4999097;28;20231;-90
2021/10/06 07:16:24;;;;;;;19.90;11.60;;;;;;;16.10;70.18;99453.56;4979903;28;20254;-90
2021/10/06 07:18:51;;;;;;;14.20;10.00;;;;;;;16.15;69.39;99469.81;5009192;28;20326;-82
2021/10/06 07:21:19;;;;;;;14.10;10.53;;;;;;;16.10;69.75;99479.75;5015561;28;20262;-83
2021/10/06 07:23:45;;;;;;;12.27;10.20;;;;;;;16.03;69.49;99485.41;5015821;28;20227;-90
2021/10/06 07:26:13;;;;;;;13.17;10.17;;;;;;;16.05;69.37;99490.56;5015347;28;20625;-87
2021/10/06 07:28:44;;;;;;;12.57;9.73;;;;;;;16.04;69.13;99494.31;5000031;28;20234;-83
2021/10/06 07:31:10;;;;;;;16.23;9.60;;;;;;;15.99;68.91;99491.56;4999078;28;20242;-82
2021/10/06 07:33:37;;;;;;;17.97;10.17;;;;;;;16.00;68.80;99499.44;4999269;28;20231;-90
2021/10/06 07:36:04;;;;;;;16.30;10.00;;;;;;;15.97;69.01;99491.81;5014993;28;20231;-85
2021/10/06 07:38:31;;;;;;;16.17;10.60;;;;;;;15.82;68.69;99492.50;4999153;28;20238;-89
2021/10/06 07:40:58;;;;;;;14.20;10.50;;;;;;;15.70;69.23;99481.06;4982757;28;20230;-88
2021/10/06 07:43:25;;;;;;;15.33;9.60;;;;;;;15.91;68.09;99505.56;5015075;28;20241;-85
2021/10/06 07:45:56;;;;;;;11.70;9.83;;;;;;;15.71;68.86;99501.59;5013245;28;20520;-89
2021/10/06 07:48:23;;;;;;;13.77;9.80;;;;;;;15.68;69.47;99504.81;5003788;28;20292;-90
2021/10/06 07:50:50;;;;;;;13.47;9.97;;;;;;;15.68;69.43;99518.31;4972652;28;20533;-90
2021/10/06 07:53:17;;;;;;;15.77;9.60;;;;;;;15.62;69.51;99530.16;4989825;28;20225;-87
2021/10/06 07:55:43;;;;;;;17.23;10.07;;;;;;;15.61;69.67;99535.78;5003076;28;20216;-82
2021/10/06 07:58:10;;;;;;;15.07;9.97;;;;;;;15.62;69.66;99529.34;5002971;28;20231;-90
2021/10/06 08:00:37;;;;;;;12.77;10.00;;;;;;;15.61;69.43;99538.50;4991355;28;20574;-87
2021/10/06 08:03:04;;;;;;;17.40;10.13;;;;;;;15.60;69.54;99543.06;5003847;28;20534;-91
2021/10/06 08:05:31;;;;;;;15.40;9.90;;;;;;;15.67;69.50;99537.50;5003138;28;20230;-87
2021/10/06 08:07:57;;;;;;;19.70;10.07;;;;;;;15.79;68.76;99521.94;4990004;28;20249;-88
2021/10/06 08:10:24;;;;;;;15.03;9.87;;;;;;;15.70;70.03;99520.75;4988757;28;20230;-81
2021/10/06 08:12:51;;;;;;;16.63;10.47;;;;;;;15.71;70.21;99520.50;5005466;28;20227;-82
2021/10/06 08:15:18;;;;;;;13.60;10.70;;;;;;;15.65;70.20;99535.03;5008619;28;20221;-88
2021/10/06 08:17:44;;;;;;;16.93;10.90;;;;;;;15.57;71.44;99531.97;5013157;28;20324;-83
2021/10/06 08:20:11;;;;;;;16.80;10.40;;;;;;;15.77;70.09;99530.28;4988644;28;20324;-80
2021/10/06 08:22:38;;;;;;;15.43;10.30;;;;;;;15.82;71.16;99532.22;4994240;28;20635;-83
2021/10/06 08:25:05;;;;;;;16.97;10.93;;;;;;;16.04;70.24;99532.16;5015884;28;20530;-78
2021/10/06 08:27:32;;;;;;;16.30;10.40;;;;;;;16.08;70.13;99538.66;4998371;28;20232;-88
2021/10/06 08:29:59;;;;;;;14.77;10.90;;;;;;;16.10;69.45;99536.50;5014580;28;20236;-86
2021/10/06 08:32:26;;;;;;;14.70;9.97;;;;;;;16.00;69.86;99556.19;5014474;28;20242;-83
2021/10/06 08:34:53;;;;;;;14.93;10.37;;;;;;;15.95;69.38;99553.44;5014350;28;20246;-91
2021/10/06 08:37:21;;;;;;;17.47;10.90;;;;;;;15.88;70.34;99546.59;5014260;28;20236;-89
2021/10/06 08:39:47;;;;;;;11.33;10.13;;;;;;;15.68;70.88;99539.09;4981683;28;20236;-88
2021/10/06 08:42:14;;;;;;;20.23;11.23;;;;;;;15.48;72.02;99549.66;5014567;28;20231;-81
2021/10/06 08:44:46;;;;;;;16.37;10.00;;;;;;;15.31;72.15;99555.94;4998032;28;20235;-82
2021/10/06 08:47:14;;;;;;;15.87;10.40;;;;;;;15.47;72.47;99553.44;5000534;28;20283;-92
2021/10/06 08:49:43;;;;;;;15.07;10.87;;;;;;;15.47;72.30;99559.66;4994611;28;20243;-91
2021/10/06 08:52:14;;;;;;;17.57;10.77;;;;;;;15.23;73.56;99553.69;4994279;28;20233;-90
2021/10/06 08:54:41;;;;;;;15.53;10.73;;;;;;;15.31;73.09;99557.81;4995507;28;20257;-94
2021/10/06 08:57:15;;;;;;;13.13;10.53;;;;;;;15.39;73.38;99569.03;4981917;28;20267;-90
2021/10/06 08:59:45;;;;;;;15.73;10.13;;;;;;;15.35;73.67;99577.88;5009217;28;20234;-94
2021/10/06 09:02:14;;;;;;;18.67;10.93;;;;;;;15.37;73.70;99576.53;5017402;28;20636;-85
2021/10/06 09:04:41;;;;;;;12.90;10.30;;;;;;;15.29;74.00;99568.06;5017967;28;20232;-83
2021/10/06 09:07:09;;;;;;;15.23;10.43;;;;;;;15.20;74.80;99577.69;4987811;28;20237;-92
2021/10/06 09:09:37;;;;;;;11.77;9.80;;;;;;;15.39;73.04;99584.41;4998282;28;20232;-87
2021/10/06 09:12:15;;;;;;;16.23;10.10;;;;;;;15.34;73.86;99576.25;4981552;28;20241;-87
2021/10/06 09:14:47;;;;;;;15.73;10.53;;;;;;;15.35;74.15;99588.66;4998843;28;20228;-81
2021/10/06 09:17:14;;;;;;;13.53;9.73;;;;;;;15.49;74.07;99589.91;4981607;28;20284;-92
2021/10/06 09:19:47;;;;;;;8.07;6.00;;;;;;;15.57;71.53;99586.81;4981659;28;20232;-86
2021/10/06 09:22:19;;;;;;;1.20;1.00;;;;;;;15.45;66.10;99580.66;5002265;28;20284;-80
2021/10/06 09:25:03;;;;;;;1.03;0.67;;;;;;;15.49;65.39;99584.50;4996972;28;20605;-80
2021/10/06 09:27:35;;;;;;;0.77;0.70;;;;;;;15.58;65.62;99583.03;5002822;28;20224;-81
2021/10/06 09:30:10;;;;;;;2.57;0.53;;;;;;;15.88;64.31;99587.94;4998782;28;20245;-85
2021/10/06 09:32:43;;;;;;;1.10;0.40;;;;;;;16.08;62.73;99576.50;4981478;28;20241;-85
2021/10/06 09:35:16;;;;;;;1.00;0.57;;;;;;;15.96;64.00;99583.97;4967512;28;20667;-84
2021/10/06 09:37:56;;;;;;;5.17;3.77;;;;;;;16.18;66.97;99600.94;4993900;28;20249;-82
2021/10/06 09:40:27;;;;;;;5.53;4.03;;;;;;;16.05;68.58;99602.13;5016903;28;20558;-88
2021/10/06 09:43:04;;;;;;;3.27;1.50;;;;;;;16.01;65.85;99598.31;5017034;28;20260;-85
2021/10/06 09:45:38;;;;;;;0.73;0.70;;;;;;;16.12;63.28;99608.16;5000709;28;20634;-92
2021/10/06 09:48:06;;;;;;;0.33;0.33;;;;;;;16.08;61.97;99611.63;4997316;28;20238;-87
2021/10/06 09:50:36;;;;;;;1.07;0.37;;;;;;;15.92;61.18;99596.34;4997090;28;20234;-84
2021/10/06 09:53:12;;;;;;;1.27;0.60;;;;;;;16.03;61.08;99608.88;4997232;28;20261;-90
2021/10/06 09:55:41;;;;;;;0.50;0.40;;;;;;;16.07;61.34;99613.53;4997907;28;20241;-88
2021/10/06 09:58:09;;;;;;;0.73;0.50;;;;;;;15.90;60.56;99603.91;4980821;28;20318;-83
2021/10/06 10:00:41;;;;;;;0.80;0.50;;;;;;;15.66;61.54;99606.88;5008127;28;20235;-90
2021/10/06 10:03:08;;;;;;;0.57;0.40;;;;;;;15.69;61.40;99610.94;5056671;28;20255;-80
2021/10/06 10:05:39;;;;;;;1.50;0.60;;;;;;;15.53;62.31;99609.16;5037295;28;20240;-83
2021/10/06 10:08:07;;;;;;;0.93;0.50;;;;;;;15.51;61.99;99622.91;5015597;28;20238;-83
2021/10/06 10:10:36;;;;;;;1.17;0.47;;;;;;;15.35;63.50;99619.16;4989254;28;20264;-83
2021/10/06 10:13:03;;;;;;;1.70;0.57;;;;;;;15.23;64.55;99602.28;4997465;28;20242;-88
2021/10/06 10:15:30;;;;;;;0.97;0.50;;;;;;;15.38;64.26;99609.75;4980817;28;20233;-85
2021/10/06 10:18:03;;;;;;;1.33;0.50;;;;;;;15.59;65.55;99627.84;5014220;28;20225;-87
2021/10/06 10:20:33;;;;;;;1.17;0.40;;;;;;;15.44;65.97;99622.25;5016503;28;20299;-91
2021/10/06 10:23:02;;;;;;;6.13;0.50;;;;;;;15.42;65.83;99609.00;5017094;28;20240;-82
2021/10/06 10:25:31;;;;;;;2.13;0.60;;;;;;;15.40;67.61;99618.41;5016714;28;20240;-94
2021/10/06 10:28:01;;;;;;;0.60;0.50;;;;;;;15.34;66.94;99625.66;5000365;28;20280;-80
2021/10/06 10:30:32;;;;;;;0.80;0.60;;;;;;;15.37;66.59;99627.00;5020055;28;20224;-81
2021/10/06 10:33:04;;;;;;;1.27;0.50;;;;;;;15.41;67.52;99623.56;5004823;28;20239;-93
2021/10/06 10:35:32;;;;;;;0.70;0.50;;;;;;;15.41;65.56;99625.44;5019740;28;20252;-85
2021/10/06 10:37:59;;;;;;;0.90;0.60;;;;;;;15.26;65.95;99638.72;5033260;28;20229;-91
2021/10/06 10:40:36;;;;;;;0.87;0.70;;;;;;;15.32;65.94;99638.56;5027348;28;20227;-81
2021/10/06 10:43:09;;;;;;;1.07;0.67;;;;;;;15.28;66.74;99629.34;5009257;28;20235;-79
2021/10/06 10:45:36;;;;;;;1.70;0.63;;;;;;;15.27;67.20;99611.50;5016348;28;20568;-79
2021/10/06 10:48:08;;;;;;;2.20;0.70;;;;;;;15.49;65.74;99613.41;5015842;28;20656;-83
2021/10/06 10:51:02;;;;;;;1.27;0.80;;;;;;;15.68;66.04;99620.13;5029126;28;20237;-85
2021/10/06 10:53:51;;;;;;;1.50;0.67;;;;;;;15.90;66.85;99623.63;5036756;28;20217;-79
2021/10/06 10:56:38;;;;;;;1.13;0.70;;;;;;;15.99;66.00;99634.78;5026659;28;20297;-88
2021/10/06 10:59:16;;;;;;;1.17;0.60;;;;;;;15.95;66.70;99629.09;5027026;28;20274;-86
2021/10/06 11:01:48;;;;;;;2.07;0.60;;;;;;;15.83;66.15;99639.19;5031199;28;20225;-88
2021/10/06 11:04:19;;;;;;;3.10;0.70;;;;;;;15.73;65.87;99633.69;5023831;28;20279;-90
2021/10/06 11:06:48;;;;;;;1.77;0.60;;;;;;;15.75;68.29;99624.28;5025911;28;20232;-82
2021/10/06 11:09:31;;;;;;;1.17;0.80;;;;;;;15.89;67.59;99640.91;4994956;28;20232;-82
2021/10/06 11:12:14;;;;;;;1.50;0.60;;;;;;;15.69;67.42;99636.06;5028680;28;20232;-91
2021/10/06 11:14:43;;;;;;;1.40;0.60;;;;;;;15.78;67.30;99620.22;5025581;28;20225;-87
2021/10/06 11:17:19;;;;;;;1.63;0.50;;;;;;;15.48;66.21;99631.47;5003635;28;20235;-83
2021/10/06 11:19:51;;;;;;;2.07;0.60;;;;;;;15.63;66.45;99639.78;5023744;28;20224;-80
2021/10/06 11:22:23;;;;;;;0.97;0.50;;;;;;;15.65;66.88;99640.34;5010598;28;20216;-82
2021/10/06 11:25:00;;;;;;;1.47;0.63;;;;;;;15.80;67.29;99642.41;5038741;28;20319;-86
2021/10/06 11:27:42;;;;;;;1.67;0.70;;;;;;;15.73;66.17;99639.09;5035716;28;20231;-81
2021/10/06 11:30:11;;;;;;;1.60;0.70;;;;;;;15.59;66.36;99644.06;5003323;28;20232;-86
2021/10/06 11:32:49;;;;;;;1.40;0.60;;;;;;;15.59;66.19;99629.72;5038356;28;20307;-88
2021/10/06 11:35:17;;;;;;;1.10;0.50;;;;;;;15.54;65.61;99632.41;5040168;28;20539;-87